createdAt,value
2022-11-12T00:01:52.754Z,4.50
2022-11-12T00:04:21.752Z,4.50
2022-11-12T00:06:52.526Z,4.40
2022-11-12T00:09:24.382Z,4.50
2022-11-12T00:11:53.234Z,4.60
2022-11-12T00:14:21.952Z,4.50
2022-11-12T00:16:51.198Z,4.40
2022-11-12T00:19:20.875Z,4.40
2022-11-12T00:21:50.255Z,4.50
2022-11-12T00:24:26.421Z,4.50
2022-11-12T00:26:55.129Z,4.50
2022-11-12T00:29:25.637Z,4.50
2022-11-12T00:31:54.445Z,4.40
2022-11-12T00:34:23.204Z,4.50
2022-11-12T00:36:52.134Z,4.50
2022-11-12T00:39:23.185Z,4.50
2022-11-12T00:41:52.318Z,4.40
2022-11-12T00:44:21.883Z,4.30
2022-11-12T00:46:54.101Z,4.20
2022-11-12T00:49:23.073Z,4.30
2022-11-12T00:51:52.199Z,4.30
2022-11-12T00:54:27.975Z,4.30
2022-11-12T00:56:56.644Z,4.10
2022-11-12T00:59:25.427Z,4.00
2022-11-12T01:01:54.661Z,4.00
2022-11-12T01:04:25.200Z,4.10
2022-11-12T01:06:54.065Z,4.10
2022-11-12T01:09:24.193Z,4.20
2022-11-12T01:11:52.831Z,4.20
2022-11-12T01:14:22.096Z,4.20
2022-11-12T01:16:51.506Z,4.10
2022-11-12T01:19:23.158Z,4.10
2022-11-12T01:21:52.138Z,4.00
2022-11-12T01:24:21.345Z,3.90
2022-11-12T01:26:51.508Z,3.80
2022-11-12T01:29:20.855Z,3.80
2022-11-12T01:31:50.271Z,3.80
2022-11-12T01:34:19.432Z,4.00
2022-11-12T01:36:49.101Z,4.00
2022-11-12T01:39:20.889Z,4.10
2022-11-12T01:41:53.502Z,3.90
2022-11-12T01:44:24.894Z,3.80
2022-11-12T01:47:03.775Z,3.70
2022-11-12T01:49:36.850Z,3.60
2022-11-12T01:52:13.930Z,3.70
2022-11-12T01:54:43.987Z,3.70
2022-11-12T01:57:15.558Z,3.80
2022-11-12T01:59:49.792Z,3.90
2022-11-12T02:02:19.836Z,3.80
2022-11-12T02:04:49.936Z,3.70
2022-11-12T02:07:23.079Z,3.60
2022-11-12T02:09:52.258Z,3.70
2022-11-12T02:12:40.728Z,3.60
2022-11-12T02:15:10.158Z,3.60
2022-11-12T02:17:38.947Z,3.60
2022-11-12T02:20:11.347Z,3.70
2022-11-12T02:22:41.538Z,3.60
2022-11-12T02:25:13.392Z,3.60
2022-11-12T02:27:42.370Z,3.60
2022-11-12T02:30:12.073Z,3.50
2022-11-12T02:32:40.724Z,3.50
2022-11-12T02:35:09.941Z,3.40
2022-11-12T02:37:40.208Z,3.50
2022-11-12T02:40:10.206Z,3.50
2022-11-12T02:42:40.467Z,3.50
2022-11-12T02:45:10.079Z,3.50
2022-11-12T02:47:38.914Z,3.50
2022-11-12T02:50:08.651Z,3.40
2022-11-12T02:52:37.688Z,3.40
2022-11-12T02:55:09.493Z,3.40
2022-11-12T02:57:41.080Z,3.50
2022-11-12T03:00:15.445Z,3.50
2022-11-12T03:02:59.164Z,3.50
2022-11-12T03:05:29.334Z,3.50
2022-11-12T03:08:02.673Z,3.40
2022-11-12T03:10:35.224Z,3.50
2022-11-12T03:13:04.329Z,3.50
2022-11-12T03:15:33.671Z,3.50
2022-11-12T03:18:02.390Z,3.50
2022-11-12T03:20:31.353Z,3.30
2022-11-12T03:23:02.055Z,3.30
2022-11-12T03:25:33.155Z,3.20
2022-11-12T03:28:03.494Z,3.10
2022-11-12T03:30:34.861Z,3.00
2022-11-12T03:33:04.076Z,3.00
2022-11-12T03:35:33.794Z,3.10
2022-11-12T03:38:06.611Z,3.20
2022-11-12T03:40:36.865Z,3.20
2022-11-12T03:43:05.629Z,3.30
2022-11-12T03:45:34.280Z,3.30
2022-11-12T03:48:02.936Z,3.20
2022-11-12T03:50:31.656Z,3.20
2022-11-12T03:53:01.608Z,3.10
2022-11-12T03:55:31.366Z,3.00
2022-11-12T03:58:01.547Z,3.00
2022-11-12T04:00:31.145Z,3.00
2022-11-12T04:03:01.041Z,3.00
2022-11-12T04:05:47.372Z,3.00
2022-11-12T04:08:35.338Z,3.00
2022-11-12T04:11:06.097Z,3.10
2022-11-12T04:13:38.438Z,3.10
2022-11-12T04:16:28.400Z,3.00
2022-11-12T04:19:16.014Z,3.00
2022-11-12T04:21:52.408Z,2.90
2022-11-12T04:24:40.908Z,3.00
2022-11-12T04:27:11.208Z,3.00
2022-11-12T04:29:59.098Z,2.90
2022-11-12T04:32:28.290Z,2.90
2022-11-12T04:34:57.479Z,2.90
2022-11-12T04:37:28.382Z,3.00
2022-11-12T04:40:17.210Z,3.00
2022-11-12T04:43:06.583Z,2.90
2022-11-12T04:45:36.805Z,3.00
2022-11-12T04:48:05.989Z,3.00
2022-11-12T04:50:37.622Z,3.00
2022-11-12T04:53:10.765Z,3.00
2022-11-12T04:55:39.455Z,2.80
2022-11-12T04:58:08.315Z,2.90
2022-11-12T05:00:41.121Z,3.00
2022-11-12T05:03:09.962Z,2.90
2022-11-12T05:05:38.869Z,2.90
2022-11-12T05:08:10.351Z,2.90
2022-11-12T05:10:42.063Z,2.90
2022-11-12T05:13:16.260Z,2.80
2022-11-12T05:15:46.571Z,2.80
2022-11-12T05:18:18.891Z,2.80
2022-11-12T05:20:48.015Z,2.80
2022-11-12T05:23:16.915Z,2.80
2022-11-12T05:25:46.444Z,2.90
2022-11-12T05:28:15.163Z,3.00
2022-11-12T05:30:51.151Z,3.00
2022-11-12T05:33:22.092Z,3.00
2022-11-12T05:35:51.377Z,2.90
2022-11-12T05:38:28.943Z,3.00
2022-11-12T05:41:01.890Z,2.90
2022-11-12T05:43:30.702Z,2.80
2022-11-12T05:46:01.027Z,2.90
2022-11-12T05:48:30.259Z,2.90
2022-11-12T05:51:12.478Z,2.80
2022-11-12T05:53:42.215Z,2.80
2022-11-12T05:56:12.310Z,2.80
2022-11-12T05:58:41.286Z,2.80
2022-11-12T06:01:11.438Z,2.80
2022-11-12T06:03:40.471Z,2.80
2022-11-12T06:06:09.607Z,2.70
2022-11-12T06:08:41.814Z,2.70
2022-11-12T06:11:13.506Z,2.80
2022-11-12T06:13:45.456Z,2.80
2022-11-12T06:16:15.669Z,2.60
2022-11-12T06:18:44.470Z,2.50
2022-11-12T06:21:23.366Z,2.50
2022-11-12T06:23:54.661Z,2.50
2022-11-12T06:26:24.412Z,2.60
2022-11-12T06:28:55.770Z,2.60
2022-11-12T06:31:25.952Z,2.50
2022-11-12T06:33:55.031Z,2.50
2022-11-12T06:36:26.590Z,2.50
2022-11-12T06:39:00.954Z,2.50
2022-11-12T06:41:29.969Z,2.60
2022-11-12T06:43:58.819Z,2.50
2022-11-12T06:46:29.584Z,2.50
2022-11-12T06:48:58.303Z,2.40
2022-11-12T06:51:28.194Z,2.40
2022-11-12T06:53:57.709Z,2.50
2022-11-12T06:56:32.220Z,2.50
2022-11-12T06:59:03.069Z,2.50
2022-11-12T07:01:33.186Z,2.50
2022-11-12T07:04:07.823Z,2.50
2022-11-12T07:06:36.750Z,2.60
2022-11-12T07:09:06.427Z,2.50
2022-11-12T07:11:35.297Z,2.50
2022-11-12T07:14:07.853Z,2.60
2022-11-12T07:16:38.332Z,2.70
2022-11-12T07:19:07.073Z,2.70
2022-11-12T07:21:35.715Z,2.70
2022-11-12T07:24:04.332Z,2.60
2022-11-12T07:26:32.976Z,2.70
2022-11-12T07:29:02.286Z,2.80
2022-11-12T07:31:31.066Z,2.80
2022-11-12T07:34:01.140Z,2.90
2022-11-12T07:36:29.757Z,2.90
2022-11-12T07:38:58.422Z,2.90
2022-11-12T07:41:27.210Z,2.90
2022-11-12T07:43:55.988Z,3.00
2022-11-12T07:46:27.232Z,3.00
2022-11-12T07:48:56.438Z,3.10
2022-11-12T07:51:28.321Z,3.10
2022-11-12T07:53:59.954Z,3.10
2022-11-12T07:56:30.147Z,3.20
2022-11-12T07:58:59.077Z,3.30
2022-11-12T08:01:31.945Z,3.40
2022-11-12T08:04:01.629Z,3.50
2022-11-12T08:06:33.298Z,3.50
2022-11-12T08:09:03.413Z,3.50
2022-11-12T08:11:32.347Z,3.60
2022-11-12T08:14:01.660Z,3.70
2022-11-12T08:16:30.460Z,3.70
2022-11-12T08:18:59.199Z,3.80
2022-11-12T08:21:27.956Z,3.90
2022-11-12T08:23:57.954Z,4.00
2022-11-12T08:26:27.033Z,4.00
2022-11-12T08:28:55.823Z,4.10
2022-11-12T08:31:24.772Z,4.20
2022-11-12T08:33:53.537Z,4.30
2022-11-12T08:36:22.438Z,4.40
2022-11-12T08:38:53.963Z,4.40
2022-11-12T08:41:23.878Z,4.50
2022-11-12T08:43:52.904Z,4.60
2022-11-12T08:46:21.747Z,4.60
2022-11-12T08:48:52.537Z,4.80
2022-11-12T08:51:21.251Z,4.90
2022-11-12T08:53:50.647Z,5.00
2022-11-12T08:56:20.222Z,5.20
2022-11-12T08:58:51.087Z,5.40
2022-11-12T09:01:20.639Z,5.50
2022-11-12T09:03:51.565Z,5.60
2022-11-12T09:06:20.916Z,5.70
2022-11-12T09:08:50.442Z,5.90
2022-11-12T09:11:19.599Z,5.90
2022-11-12T09:13:53.545Z,6.00
2022-11-12T09:16:24.780Z,6.10
2022-11-12T09:18:53.309Z,6.20
2022-11-12T09:21:24.972Z,6.30
2022-11-12T09:23:54.026Z,6.30
2022-11-12T09:26:22.667Z,6.40
2022-11-12T09:28:55.009Z,6.60
2022-11-12T09:31:25.916Z,6.60
2022-11-12T09:33:54.846Z,6.70
2022-11-12T09:36:23.854Z,6.90
2022-11-12T09:38:52.688Z,7.00
2022-11-12T09:41:27.354Z,7.10
2022-11-12T09:44:01.563Z,7.30
2022-11-12T09:46:36.259Z,7.40
2022-11-12T09:49:12.434Z,7.50
2022-11-12T09:51:45.257Z,7.60
2022-11-12T09:54:29.897Z,7.80
2022-11-12T09:56:58.926Z,7.90
2022-11-12T09:59:33.124Z,8.00
2022-11-12T10:02:08.539Z,8.20
2022-11-12T10:04:57.690Z,8.20
2022-11-12T10:07:40.996Z,8.30
2022-11-12T10:10:15.687Z,8.50
2022-11-12T10:12:57.287Z,8.60
2022-11-12T10:16:08.805Z,8.80
2022-11-12T10:18:51.367Z,9.00
2022-11-12T10:21:29.343Z,9.10
2022-11-12T10:24:02.256Z,9.30
2022-11-12T10:26:34.075Z,9.50
2022-11-12T10:29:13.739Z,9.60
2022-11-12T10:31:43.939Z,9.80
2022-11-12T10:34:19.224Z,9.90
2022-11-12T10:36:55.328Z,10.00
2022-11-12T10:39:35.997Z,10.20
2022-11-12T10:42:07.523Z,10.40
2022-11-12T10:44:36.478Z,10.50
2022-11-12T10:47:27.095Z,10.70
2022-11-12T10:50:23.015Z,10.80
2022-11-12T10:52:57.077Z,10.90
2022-11-12T10:55:28.028Z,11.00
2022-11-12T10:58:07.875Z,11.10
2022-11-12T11:00:37.516Z,11.20
2022-11-12T11:03:19.276Z,11.40
2022-11-12T11:05:54.881Z,11.60
2022-11-12T11:08:45.038Z,11.70
2022-11-12T11:11:27.011Z,11.80
2022-11-12T11:13:57.061Z,11.90
2022-11-12T11:16:27.925Z,12.00
2022-11-12T11:19:00.474Z,12.10
2022-11-12T11:21:45.056Z,12.20
2022-11-12T11:24:27.034Z,12.30
2022-11-12T11:27:05.192Z,12.40
2022-11-12T11:29:45.883Z,12.40
2022-11-12T11:32:27.515Z,12.50
2022-11-12T11:35:10.533Z,12.60
2022-11-12T11:37:52.314Z,12.70
2022-11-12T11:40:30.309Z,12.80
2022-11-12T11:43:19.788Z,12.90
2022-11-12T11:46:01.788Z,12.90
2022-11-12T11:48:42.458Z,13.00
2022-11-12T11:51:27.851Z,13.10
2022-11-12T11:54:05.498Z,13.30
2022-11-12T11:56:40.217Z,13.40
2022-11-12T11:59:22.626Z,13.60
2022-11-12T12:02:06.434Z,13.70
2022-11-12T12:04:46.114Z,13.80
2022-11-12T12:07:27.229Z,14.00
2022-11-12T12:10:09.019Z,14.00
2022-11-12T12:12:52.904Z,14.10
2022-11-12T12:15:39.879Z,14.10
2022-11-12T12:18:20.769Z,14.30
2022-11-12T12:20:56.960Z,14.40
2022-11-12T12:23:34.442Z,14.50
2022-11-12T12:26:07.968Z,14.60
2022-11-12T12:28:41.210Z,14.70
2022-11-12T12:31:16.038Z,14.90
2022-11-12T12:33:51.130Z,14.90
2022-11-12T12:36:26.807Z,14.90
2022-11-12T12:39:09.752Z,15.00
2022-11-12T12:41:46.894Z,15.00
2022-11-12T12:44:15.614Z,15.00
2022-11-12T12:46:48.776Z,15.00
2022-11-12T12:49:25.172Z,15.00
2022-11-12T12:51:55.897Z,15.10
2022-11-12T12:54:58.471Z,15.20
2022-11-12T12:57:37.686Z,15.20
2022-11-12T13:00:36.579Z,15.10
2022-11-12T13:03:05.808Z,15.10
2022-11-12T13:05:36.281Z,15.10
2022-11-12T13:08:09.721Z,15.30
2022-11-12T13:10:53.178Z,15.40
2022-11-12T13:13:34.232Z,15.50
2022-11-12T13:16:03.692Z,15.60
2022-11-12T13:19:02.284Z,15.60
2022-11-12T13:21:31.332Z,15.60
2022-11-12T13:24:08.260Z,15.60
2022-11-12T13:26:55.984Z,15.60
2022-11-12T13:29:27.223Z,15.70
2022-11-12T13:32:43.726Z,15.70
2022-11-12T13:35:22.876Z,15.60
2022-11-12T13:37:55.002Z,15.60
2022-11-12T13:40:35.550Z,15.50
2022-11-12T13:43:17.470Z,15.50
2022-11-12T13:46:00.499Z,15.50
2022-11-12T13:48:32.459Z,15.40
2022-11-12T13:51:05.317Z,15.40
2022-11-12T13:53:34.978Z,15.40
2022-11-12T13:56:03.931Z,15.40
2022-11-12T13:58:35.380Z,15.50
2022-11-12T14:01:06.232Z,15.80
2022-11-12T14:03:43.202Z,15.70
2022-11-12T14:06:19.615Z,15.50
2022-11-12T14:09:06.977Z,15.50
2022-11-12T14:12:01.170Z,15.50
2022-11-12T14:14:46.262Z,15.40
2022-11-12T14:17:28.064Z,15.30
2022-11-12T14:20:25.373Z,15.20
2022-11-12T14:22:55.914Z,15.30
2022-11-12T14:25:26.397Z,15.20
2022-11-12T14:27:56.122Z,15.40
2022-11-12T14:30:29.640Z,15.30
2022-11-12T14:33:00.922Z,15.30
2022-11-12T14:35:35.711Z,15.00
2022-11-12T14:38:14.539Z,14.90
2022-11-12T14:40:49.805Z,14.70
2022-11-12T14:43:27.936Z,14.50
2022-11-12T14:46:00.294Z,14.40
2022-11-12T14:48:29.490Z,14.20
2022-11-12T14:51:18.076Z,14.20
2022-11-12T14:53:51.015Z,14.00
2022-11-12T14:56:30.056Z,13.90
2022-11-12T14:59:03.246Z,13.80
2022-11-12T15:02:14.612Z,13.70
2022-11-12T15:04:26.070Z,13.50
2022-11-12T15:06:56.519Z,13.30
2022-11-12T15:09:37.537Z,13.10
2022-11-12T15:12:08.794Z,13.00
2022-11-12T15:14:37.658Z,12.80
2022-11-12T15:17:07.991Z,12.60
2022-11-12T15:19:37.077Z,12.40
2022-11-12T15:22:06.264Z,12.40
2022-11-12T15:24:37.210Z,12.20
2022-11-12T15:27:35.407Z,12.10
2022-11-12T15:30:17.995Z,11.90
2022-11-12T15:32:49.259Z,11.70
2022-11-12T15:35:37.021Z,11.60
2022-11-12T15:38:12.168Z,11.50
2022-11-12T15:40:46.806Z,11.40
2022-11-12T15:43:18.881Z,11.40
2022-11-12T15:45:50.911Z,11.20
2022-11-12T15:48:21.608Z,11.10
2022-11-12T15:50:51.034Z,11.00
2022-11-12T15:53:22.979Z,10.90
2022-11-12T15:55:53.239Z,10.80
2022-11-12T15:58:29.853Z,10.70
2022-11-12T16:00:59.446Z,10.50
2022-11-12T16:03:29.988Z,10.40
2022-11-12T16:06:01.467Z,10.30
2022-11-12T16:08:34.377Z,10.20
2022-11-12T16:11:03.168Z,10.20
2022-11-12T16:13:34.625Z,10.10
2022-11-12T16:16:07.505Z,10.10
2022-11-12T16:18:37.659Z,10.00
2022-11-12T16:21:06.967Z,9.90
2022-11-12T16:23:36.901Z,9.80
2022-11-12T16:26:09.784Z,9.70
2022-11-12T16:28:38.384Z,9.70
2022-11-12T16:31:07.975Z,9.60
2022-11-12T16:33:38.160Z,9.60
2022-11-12T16:36:15.337Z,9.50
2022-11-12T16:38:44.357Z,9.50
2022-11-12T16:41:14.722Z,9.40
2022-11-12T16:43:43.494Z,9.30
2022-11-12T16:46:22.238Z,9.30
2022-11-12T16:48:52.514Z,9.30
2022-11-12T16:51:22.962Z,9.30
2022-11-12T16:53:51.649Z,9.20
2022-11-12T16:56:21.958Z,9.10
2022-11-12T16:58:52.162Z,9.10
2022-11-12T17:01:25.613Z,9.10
2022-11-12T17:03:57.344Z,9.20
2022-11-12T17:06:34.032Z,9.10
2022-11-12T17:09:03.231Z,9.00
2022-11-12T17:11:31.865Z,8.90
2022-11-12T17:14:01.321Z,8.80
2022-11-12T17:16:30.687Z,8.70
2022-11-12T17:19:02.749Z,8.60
2022-11-12T17:21:31.833Z,8.60
2022-11-12T17:24:00.416Z,8.50
2022-11-12T17:26:29.290Z,8.50
2022-11-12T17:29:03.672Z,8.50
2022-11-12T17:31:37.053Z,8.40
2022-11-12T17:34:07.794Z,8.40
2022-11-12T17:36:42.203Z,8.40
2022-11-12T17:39:13.537Z,8.30
2022-11-12T17:41:42.225Z,8.20
2022-11-12T17:44:16.858Z,8.20
2022-11-12T17:46:45.936Z,8.10
2022-11-12T17:49:16.630Z,8.10
2022-11-12T17:51:45.248Z,8.10
2022-11-12T17:54:13.884Z,8.10
2022-11-12T17:56:42.569Z,8.00
2022-11-12T17:59:11.167Z,7.90
2022-11-12T18:01:39.908Z,7.90
2022-11-12T18:04:11.699Z,7.80
2022-11-12T18:06:41.979Z,7.80
2022-11-12T18:09:30.324Z,7.80
2022-11-12T18:11:59.054Z,7.70
2022-11-12T18:14:27.672Z,7.70
2022-11-12T18:16:57.171Z,7.60
2022-11-12T18:19:25.740Z,7.60
2022-11-12T18:21:56.976Z,7.60
2022-11-12T18:24:26.021Z,7.50
2022-11-12T18:26:54.629Z,7.50
2022-11-12T18:29:23.274Z,7.50
2022-11-12T18:31:52.064Z,7.40
2022-11-12T18:34:20.916Z,7.40
2022-11-12T18:36:50.137Z,7.40
2022-11-12T18:39:21.082Z,7.30
2022-11-12T18:41:51.330Z,7.20
2022-11-12T18:44:25.741Z,7.20
2022-11-12T18:46:54.755Z,7.20
2022-11-12T18:49:23.872Z,7.20
2022-11-12T18:51:52.595Z,7.20
2022-11-12T18:54:24.522Z,7.20
2022-11-12T18:56:53.167Z,7.20
2022-11-12T18:59:24.138Z,7.10
2022-11-12T19:01:53.124Z,7.20
2022-11-12T19:04:22.369Z,7.20
2022-11-12T19:06:51.605Z,7.10
2022-11-12T19:09:22.841Z,7.10
2022-11-12T19:11:51.440Z,7.00
2022-11-12T19:14:20.729Z,7.00
2022-11-12T19:16:50.721Z,6.90
2022-11-12T19:19:19.643Z,6.90
2022-11-12T19:21:49.581Z,6.90
2022-11-12T19:24:18.515Z,6.90
2022-11-12T19:26:49.464Z,6.90
2022-11-12T19:29:18.477Z,6.90
2022-11-12T19:31:47.192Z,6.90
2022-11-12T19:34:15.911Z,6.90
2022-11-12T19:36:44.738Z,6.80
2022-11-12T19:39:15.778Z,6.70
2022-11-12T19:41:44.613Z,6.70
2022-11-12T19:44:14.775Z,6.70
2022-11-12T19:46:43.640Z,6.70
2022-11-12T19:49:12.445Z,6.70
2022-11-12T19:51:43.360Z,6.60
2022-11-12T19:54:12.626Z,6.50
2022-11-12T19:56:41.562Z,6.50
2022-11-12T19:59:11.979Z,6.50
2022-11-12T20:01:42.373Z,6.50
2022-11-12T20:04:11.978Z,6.60
2022-11-12T20:06:40.851Z,6.50
2022-11-12T20:09:13.223Z,6.50
2022-11-12T20:11:42.349Z,6.40
2022-11-12T20:14:11.526Z,6.40
2022-11-12T20:16:41.784Z,6.40
2022-11-12T20:19:10.632Z,6.40
2022-11-12T20:21:39.341Z,6.30
2022-11-12T20:24:11.129Z,6.30
2022-11-12T20:26:40.328Z,6.20
2022-11-12T20:29:09.326Z,6.10
2022-11-12T20:31:38.215Z,6.10
2022-11-12T20:34:08.334Z,6.10
2022-11-12T20:36:37.743Z,6.10
2022-11-12T20:39:06.834Z,6.10
2022-11-12T20:41:35.800Z,6.00
2022-11-12T20:44:04.567Z,6.00
2022-11-12T20:46:33.600Z,5.90
2022-11-12T20:49:02.441Z,6.00
2022-11-12T20:51:33.779Z,6.00
2022-11-12T20:54:03.276Z,6.00
2022-11-12T20:56:32.684Z,5.90
2022-11-12T20:59:04.132Z,5.90
2022-11-12T21:01:33.460Z,5.90
2022-11-12T21:04:02.425Z,5.90
2022-11-12T21:06:32.453Z,5.90
2022-11-12T21:09:01.450Z,5.80
2022-11-12T21:11:30.566Z,5.80
2022-11-12T21:14:00.798Z,5.70
2022-11-12T21:16:29.648Z,5.70
2022-11-12T21:19:01.590Z,5.60
2022-11-12T21:21:31.567Z,5.70
2022-11-12T21:24:05.021Z,5.70
2022-11-12T21:26:34.362Z,5.70
2022-11-12T21:29:04.884Z,5.60
2022-11-12T21:31:33.623Z,5.70
2022-11-12T21:34:04.833Z,5.60
2022-11-12T21:36:35.523Z,5.70
2022-11-12T21:39:06.344Z,5.60
2022-11-12T21:41:35.106Z,5.60
2022-11-12T21:44:04.926Z,5.70
2022-11-12T21:46:35.952Z,5.70
2022-11-12T21:49:05.741Z,5.70
2022-11-12T21:51:34.999Z,5.70
2022-11-12T21:54:07.532Z,5.80
2022-11-12T21:56:38.074Z,5.70
2022-11-12T21:59:07.084Z,5.60
2022-11-12T22:01:36.413Z,5.50
2022-11-12T22:04:08.287Z,5.50
2022-11-12T22:06:38.879Z,5.50
2022-11-12T22:09:09.452Z,5.50
2022-11-12T22:11:38.315Z,5.40
2022-11-12T22:14:07.251Z,5.40
2022-11-12T22:16:36.062Z,5.40
2022-11-12T22:19:06.607Z,5.40
2022-11-12T22:21:39.760Z,5.40
2022-11-12T22:24:11.019Z,5.50
2022-11-12T22:26:39.843Z,5.50
2022-11-12T22:29:08.780Z,5.40
2022-11-12T22:31:37.457Z,5.40
2022-11-12T22:34:08.072Z,5.30
2022-11-12T22:36:37.119Z,5.40
2022-11-12T22:39:06.917Z,5.40
2022-11-12T22:41:37.835Z,5.50
2022-11-12T22:44:06.811Z,5.40
2022-11-12T22:46:36.219Z,5.30
2022-11-12T22:49:06.017Z,5.40
2022-11-12T22:51:35.581Z,5.40
2022-11-12T22:54:06.437Z,5.30
2022-11-12T22:56:36.835Z,5.30
2022-11-12T22:59:05.469Z,5.40
2022-11-12T23:01:36.059Z,5.40
2022-11-12T23:04:06.966Z,5.50
2022-11-12T23:06:36.842Z,5.50
2022-11-12T23:09:06.624Z,5.50
2022-11-12T23:11:37.982Z,5.50
2022-11-12T23:14:06.728Z,5.50
2022-11-12T23:16:35.992Z,5.50
2022-11-12T23:19:04.788Z,5.40
2022-11-12T23:21:33.577Z,5.30
2022-11-12T23:24:02.221Z,5.20
2022-11-12T23:26:32.381Z,5.20
2022-11-12T23:29:02.950Z,5.20
2022-11-12T23:31:33.144Z,5.10
2022-11-12T23:34:02.322Z,5.20
2022-11-12T23:36:32.243Z,5.20
2022-11-12T23:39:01.539Z,5.10
2022-11-12T23:41:30.305Z,5.20
2022-11-12T23:43:59.662Z,5.20
2022-11-12T23:46:29.748Z,5.20
2022-11-12T23:48:58.689Z,5.10
2022-11-12T23:51:28.021Z,5.10
2022-11-12T23:53:56.922Z,5.10
2022-11-12T23:56:25.911Z,5.00
2022-11-12T23:58:56.025Z,4.90
